createdAt,value
2022-12-08T06:02:10.775Z,28.67
2022-12-08T06:04:37.509Z,34.15
2022-12-08T06:07:04.737Z,36.10
2022-12-08T06:09:31.374Z,35.67
2022-12-08T06:11:58.587Z,39.08
2022-12-08T06:14:25.176Z,40.03
2022-12-08T06:16:52.568Z,42.38
2022-12-08T06:19:19.627Z,45.33
2022-12-08T06:21:46.782Z,42.60
2022-12-08T06:24:13.426Z,44.25
2022-12-08T06:26:41.737Z,41.00
2022-12-08T06:29:08.864Z,39.28
2022-12-08T06:31:36.193Z,39.42
2022-12-08T06:34:02.883Z,39.70
2022-12-08T06:36:30.129Z,39.58
2022-12-08T06:38:57.066Z,44.00
2022-12-08T06:41:24.497Z,44.25
2022-12-08T06:43:51.139Z,45.33
2022-12-08T06:46:20.037Z,42.22
2022-12-08T06:48:47.443Z,43.80
2022-12-08T06:51:19.884Z,44.38
2022-12-08T06:53:47.030Z,46.40
2022-12-08T06:56:16.143Z,44.17
2022-12-08T06:58:46.104Z,44.45
2022-12-08T07:01:17.790Z,49.88
2022-12-08T07:03:44.589Z,41.38
2022-12-08T07:06:24.998Z,48.08
2022-12-08T07:08:52.336Z,43.92
2022-12-08T07:11:22.076Z,44.00
2022-12-08T07:13:49.410Z,47.65
2022-12-08T07:16:16.916Z,49.90
2022-12-08T07:18:44.019Z,43.80
2022-12-08T07:21:13.525Z,47.90
2022-12-08T07:23:40.147Z,50.15
2022-12-08T07:26:10.554Z,45.15
2022-12-08T07:28:39.013Z,41.47
2022-12-08T07:31:06.979Z,41.55
2022-12-08T07:33:34.536Z,44.10
2022-12-08T07:36:04.299Z,43.90
2022-12-08T07:38:31.427Z,39.60
2022-12-08T07:40:59.330Z,40.13
2022-12-08T07:43:26.286Z,41.67
2022-12-08T07:45:53.632Z,41.97
2022-12-08T07:48:20.502Z,42.28
2022-12-08T07:50:47.874Z,41.70
2022-12-08T07:53:14.707Z,41.63
2022-12-08T07:55:43.352Z,40.97
2022-12-08T07:58:10.919Z,44.80
2022-12-08T08:00:38.513Z,42.83
2022-12-08T08:03:06.060Z,36.72
2022-12-08T08:05:33.423Z,38.00
2022-12-08T08:08:00.078Z,39.35
2022-12-08T08:10:27.478Z,36.40
2022-12-08T08:12:54.275Z,38.22
2022-12-08T08:15:21.573Z,31.20
2022-12-08T08:17:51.997Z,33.90
2022-12-08T08:20:19.986Z,33.92
2022-12-08T08:22:50.296Z,34.17
2022-12-08T08:25:19.961Z,30.45
2022-12-08T08:27:46.814Z,30.88
2022-12-08T08:30:19.922Z,30.88
2022-12-08T08:32:47.807Z,27.05
2022-12-08T08:35:15.245Z,29.48
2022-12-08T08:37:45.726Z,32.97
2022-12-08T08:40:15.798Z,28.35
2022-12-08T08:42:42.332Z,23.48
2022-12-08T08:45:09.849Z,27.02
2022-12-08T08:47:37.577Z,24.42
2022-12-08T08:50:05.552Z,24.98
2022-12-08T08:52:32.492Z,25.23
2022-12-08T08:54:59.699Z,28.00
2022-12-08T08:57:26.426Z,24.02
2022-12-08T08:59:54.281Z,24.10
2022-12-08T09:02:21.271Z,22.58
2022-12-08T09:04:48.934Z,27.40
2022-12-08T09:07:16.001Z,24.00
2022-12-08T09:09:43.839Z,22.85
2022-12-08T09:12:10.783Z,24.35
2022-12-08T09:14:37.986Z,25.83
2022-12-08T09:17:05.105Z,23.50
2022-12-08T09:19:32.830Z,24.50
2022-12-08T09:21:59.376Z,25.98
2022-12-08T09:24:26.993Z,24.17
2022-12-08T09:26:53.522Z,21.55
2022-12-08T09:29:20.671Z,19.05
2022-12-08T09:31:47.344Z,22.65
2022-12-08T09:34:14.871Z,23.80
2022-12-08T09:36:41.460Z,19.50
2022-12-08T09:39:08.873Z,20.73
2022-12-08T09:41:48.632Z,20.30
2022-12-08T09:44:34.044Z,19.50
2022-12-08T09:47:03.475Z,19.13
2022-12-08T09:49:50.810Z,18.38
2022-12-08T09:52:33.627Z,19.75
2022-12-08T09:55:09.788Z,21.13
2022-12-08T09:57:36.854Z,17.73
2022-12-08T10:00:07.098Z,18.60
2022-12-08T10:02:34.486Z,17.38
2022-12-08T10:05:01.390Z,18.02
2022-12-08T10:08:04.308Z,17.63
2022-12-08T10:10:58.190Z,18.65
2022-12-08T10:13:58.071Z,21.55
2022-12-08T10:16:36.055Z,18.67
2022-12-08T10:19:17.385Z,15.77
2022-12-08T10:21:45.302Z,14.80
2022-12-08T10:24:22.271Z,15.45
2022-12-08T10:26:49.666Z,17.20
2022-12-08T10:29:16.331Z,16.52
2022-12-08T10:31:43.881Z,16.83
2022-12-08T10:34:18.955Z,17.13
2022-12-08T10:36:54.606Z,15.13
2022-12-08T10:39:45.640Z,14.00
2022-12-08T10:42:15.785Z,13.98
2022-12-08T10:45:08.515Z,18.23
2022-12-08T10:47:44.632Z,14.52
2022-12-08T10:50:23.988Z,14.32
2022-12-08T10:53:00.080Z,12.73
2022-12-08T10:55:27.349Z,12.80
2022-12-08T10:57:54.532Z,13.02
2022-12-08T11:00:24.775Z,13.35
2022-12-08T11:02:56.862Z,14.55
2022-12-08T11:05:28.113Z,14.23
2022-12-08T11:07:56.228Z,14.45
2022-12-08T11:10:32.280Z,14.77
2022-12-08T11:13:06.298Z,12.00
2022-12-08T11:15:39.934Z,11.55
2022-12-08T11:18:10.740Z,15.07
2022-12-08T11:20:41.887Z,14.38
2022-12-08T11:23:24.348Z,13.60
2022-12-08T11:25:52.305Z,14.70
2022-12-08T11:28:24.581Z,14.40
2022-12-08T11:31:32.489Z,13.20
2022-12-08T11:33:59.194Z,11.00
2022-12-08T11:36:29.665Z,14.55
2022-12-08T11:38:59.684Z,13.20
2022-12-08T11:41:37.664Z,12.77
2022-12-08T11:44:28.662Z,10.48
2022-12-08T11:47:09.035Z,10.30
2022-12-08T11:49:39.406Z,13.52
2022-12-08T11:52:18.621Z,11.52
2022-12-08T11:54:52.385Z,10.68
2022-12-08T11:57:23.445Z,10.98
2022-12-08T11:59:54.306Z,10.73
2022-12-08T12:02:27.686Z,10.70
2022-12-08T12:05:09.090Z,10.25
2022-12-08T12:08:06.830Z,10.25
2022-12-08T12:10:54.911Z,10.15
2022-12-08T12:13:57.412Z,13.32
2022-12-08T12:16:53.643Z,11.70
2022-12-08T12:19:22.514Z,8.82
2022-12-08T12:21:56.728Z,9.37
2022-12-08T12:24:36.072Z,10.85
2022-12-08T12:27:16.446Z,9.70
2022-12-08T12:29:56.537Z,9.27
2022-12-08T12:32:25.004Z,10.70
2022-12-08T12:35:00.258Z,9.55
2022-12-08T12:37:40.002Z,8.68
2022-12-08T12:40:17.764Z,8.23
2022-12-08T12:43:14.493Z,9.82
2022-12-08T12:45:43.818Z,12.48
2022-12-08T12:50:56.726Z,8.48
2022-12-08T12:53:24.522Z,8.25
2022-12-08T12:55:55.071Z,8.73
2022-12-08T12:58:28.218Z,8.98
2022-12-08T13:01:10.427Z,11.52
2022-12-08T13:03:45.732Z,12.70
2022-12-08T13:06:15.028Z,10.02
2022-12-08T13:08:53.514Z,10.65
2022-12-08T13:11:22.123Z,14.63
2022-12-08T13:13:57.624Z,9.38
2022-12-08T13:16:28.141Z,9.88
2022-12-08T13:19:02.204Z,14.60
2022-12-08T13:21:37.451Z,9.85
2022-12-08T13:24:26.723Z,10.50
2022-12-08T13:27:05.955Z,8.73
2022-12-08T13:29:33.589Z,7.95
2022-12-08T13:32:03.142Z,7.15
2022-12-08T13:34:45.457Z,9.30
2022-12-08T13:37:12.679Z,9.30
2022-12-08T13:39:39.175Z,8.40
2022-12-08T13:42:17.345Z,12.07
2022-12-08T13:45:24.125Z,8.35
2022-12-08T13:47:59.581Z,31.88
2022-12-08T13:57:02.663Z,9.07
2022-12-08T13:59:30.622Z,7.53
2022-12-08T14:02:03.998Z,6.50
2022-12-08T14:04:47.849Z,6.80
2022-12-08T14:07:18.667Z,7.00
2022-12-08T14:09:46.223Z,11.85
2022-12-08T14:12:22.683Z,8.82
2022-12-08T14:15:03.273Z,8.73
2022-12-08T14:17:31.141Z,8.48
2022-12-08T14:19:57.714Z,6.78
2022-12-08T14:22:24.940Z,7.47
2022-12-08T14:24:53.626Z,8.68
2022-12-08T14:27:26.140Z,8.18
2022-12-08T14:29:58.234Z,7.97
2022-12-08T14:32:42.048Z,7.93
2022-12-08T14:35:08.616Z,9.27
2022-12-08T14:37:42.457Z,8.60
2022-12-08T14:40:37.942Z,8.68
2022-12-08T14:43:08.116Z,9.18
2022-12-08T14:45:46.715Z,8.55
2022-12-08T14:48:33.818Z,11.38
2022-12-08T14:51:03.396Z,7.68
2022-12-08T14:53:39.883Z,8.25
2022-12-08T14:56:23.481Z,14.23
2022-12-08T14:59:03.501Z,9.48
2022-12-08T15:04:12.928Z,6.68
2022-12-08T15:07:15.065Z,6.68
2022-12-08T15:09:48.939Z,7.40
2022-12-08T15:12:15.558Z,8.68
2022-12-08T15:14:54.595Z,8.93
2022-12-08T15:17:32.191Z,9.73
2022-12-08T15:20:00.152Z,7.93
2022-12-08T15:22:28.168Z,11.55
2022-12-08T15:24:56.004Z,13.57
2022-12-08T15:27:25.496Z,9.73
2022-12-08T15:29:52.574Z,12.52
2022-12-08T15:32:24.301Z,13.15
2022-12-08T15:34:50.943Z,11.85
2022-12-08T15:37:25.518Z,15.23
2022-12-08T15:39:52.756Z,10.40
2022-12-08T15:42:19.674Z,10.13
2022-12-08T15:44:47.349Z,17.05
2022-12-08T15:47:22.268Z,30.95
2022-12-08T15:49:50.853Z,23.05
2022-12-08T15:52:20.620Z,20.83
2022-12-08T15:54:49.217Z,19.35
2022-12-08T16:00:51.940Z,14.88
2022-12-08T16:09:40.540Z,15.48
2022-12-08T16:13:13.878Z,13.07
2022-12-08T16:18:16.018Z,14.05
2022-12-08T16:21:07.509Z,15.70
2022-12-08T16:23:42.829Z,12.07
2022-12-08T16:26:49.086Z,13.40
2022-12-08T16:29:00.865Z,11.98
2022-12-08T16:31:27.529Z,12.85
2022-12-08T16:33:54.819Z,11.82
2022-12-08T16:36:21.404Z,12.25
2022-12-08T16:38:48.574Z,12.85
2022-12-08T16:41:34.595Z,12.32
2022-12-08T16:44:06.373Z,16.30
2022-12-08T16:46:33.167Z,16.65
2022-12-08T16:49:00.364Z,18.48
2022-12-08T16:51:27.623Z,20.02
2022-12-08T16:53:57.166Z,20.17
2022-12-08T16:56:30.423Z,20.10
2022-12-08T16:59:00.089Z,22.55
2022-12-08T17:01:26.738Z,23.42
2022-12-08T17:04:29.223Z,23.40
2022-12-08T17:06:40.663Z,27.50
2022-12-08T17:09:07.646Z,25.45
2022-12-08T17:11:40.757Z,28.75
2022-12-08T17:14:09.658Z,30.33
2022-12-08T17:16:36.228Z,29.33
2022-12-08T17:19:03.246Z,32.72
2022-12-08T17:21:29.777Z,30.27
2022-12-08T17:23:56.766Z,33.22
2022-12-08T17:26:23.331Z,28.33
2022-12-08T17:29:05.541Z,30.05
2022-12-08T17:31:32.999Z,27.25
2022-12-08T17:34:05.976Z,28.40
2022-12-08T17:36:32.652Z,28.65
2022-12-08T17:39:01.268Z,31.80
2022-12-08T17:41:29.050Z,30.83
2022-12-08T17:43:56.796Z,29.40
2022-12-08T17:46:24.145Z,33.13
2022-12-08T17:48:51.718Z,31.25
2022-12-08T17:51:18.484Z,31.20
2022-12-08T17:53:46.246Z,33.83
2022-12-08T17:56:19.053Z,33.22
2022-12-08T17:58:51.354Z,32.90
2022-12-08T18:01:22.576Z,35.08
2022-12-08T18:03:50.028Z,37.40
2022-12-08T18:06:17.624Z,39.10
2022-12-08T18:08:45.573Z,39.03
2022-12-08T18:11:19.658Z,35.05
2022-12-08T18:13:48.362Z,45.75
2022-12-08T18:16:15.927Z,36.55
2022-12-08T18:18:43.406Z,36.35
2022-12-08T18:21:10.651Z,39.55
2022-12-08T18:23:39.050Z,39.38
2022-12-08T18:26:07.652Z,40.40
2022-12-08T18:28:36.254Z,41.33
2022-12-08T18:31:07.569Z,40.15
2022-12-08T18:33:34.818Z,40.88
2022-12-08T18:36:01.401Z,44.38
2022-12-08T18:38:28.590Z,44.67
2022-12-08T18:40:55.123Z,41.40
2022-12-08T18:43:22.254Z,43.65
2022-12-08T18:45:48.813Z,49.80
2022-12-08T18:48:15.992Z,41.00
2022-12-08T18:50:44.641Z,38.50
2022-12-08T18:53:11.815Z,43.67
2022-12-08T18:55:38.337Z,42.22
2022-12-08T18:58:05.526Z,40.60
2022-12-08T19:00:32.043Z,41.15
2022-12-08T19:02:59.224Z,38.67
2022-12-08T19:05:25.807Z,40.15
2022-12-08T19:07:52.821Z,37.20
2022-12-08T19:10:20.068Z,39.72
2022-12-08T19:12:50.278Z,44.17
2022-12-08T19:15:17.529Z,44.90
2022-12-08T19:17:44.140Z,45.58
2022-12-08T19:20:12.614Z,43.60
2022-12-08T19:22:39.170Z,37.85
2022-12-08T19:25:06.937Z,38.58
2022-12-08T19:27:34.125Z,40.55
2022-12-08T19:30:01.293Z,37.53
2022-12-08T19:32:29.822Z,36.88
2022-12-08T19:34:57.006Z,41.00
2022-12-08T19:37:23.581Z,41.03
2022-12-08T19:40:09.643Z,38.50
2022-12-08T19:42:54.844Z,42.65
2022-12-08T19:45:22.029Z,41.17
2022-12-08T19:47:49.352Z,41.92
2022-12-08T19:50:34.920Z,42.78
2022-12-08T19:53:04.230Z,40.70
2022-12-08T19:55:30.808Z,38.42
2022-12-08T19:57:58.284Z,40.83
2022-12-08T20:00:25.963Z,42.50
2022-12-08T20:02:52.609Z,39.92
2022-12-08T20:05:19.939Z,43.70
2022-12-08T20:07:47.009Z,44.90
2022-12-08T20:10:35.558Z,43.40
2022-12-08T20:13:21.923Z,42.17
2022-12-08T20:15:48.641Z,40.28
2022-12-08T20:18:16.056Z,41.25
2022-12-08T20:20:44.355Z,42.50
2022-12-08T20:23:12.012Z,44.58
2022-12-08T20:25:39.881Z,46.90
2022-12-08T20:28:07.266Z,45.40
2022-12-08T20:30:34.292Z,48.05
2022-12-08T20:33:01.444Z,50.20
2022-12-08T20:35:28.039Z,45.22
2022-12-08T20:37:54.958Z,45.90
2022-12-08T20:40:21.574Z,50.63
2022-12-08T20:42:49.354Z,45.95
2022-12-08T20:45:16.033Z,47.20
2022-12-08T20:47:42.907Z,51.63
2022-12-08T20:50:10.896Z,49.58
2022-12-08T20:52:37.916Z,47.80
2022-12-08T20:55:06.942Z,47.70
2022-12-08T20:57:33.837Z,44.95
2022-12-08T21:00:01.049Z,42.95
2022-12-08T21:02:27.981Z,51.40
2022-12-08T21:04:55.363Z,46.10
2022-12-08T21:07:22.198Z,48.15
2022-12-08T21:09:49.626Z,43.60
2022-12-08T21:12:16.226Z,47.65
2022-12-08T21:14:43.897Z,56.45
2022-12-08T21:17:10.725Z,47.10
2022-12-08T21:19:38.289Z,49.38
2022-12-08T21:22:05.018Z,44.72
2022-12-08T21:24:34.251Z,48.80
2022-12-08T21:27:01.530Z,48.45
2022-12-08T21:29:28.935Z,43.97
